Time,TemperatureF,DewpointF,PressureIn,WindDirection,WindDirectionDegrees,WindSpeedMPH,WindSpeedGustMPH,Humidity,HourlyPrecipIn,Conditions,Clouds,dailyrainin,SoftwareType,DateUTC
2013-05-29 00:01:00,66.5,64.7,29.50,SW,223,0.6,1.8,94,0.04,,,0.00,WUHU216HW,2013-05-29 05:01:00,
2013-05-29 00:06:00,66.4,64.6,29.50,SE,143,0.9,2.7,94,0.03,,,0.00,WUHU216HW,2013-05-29 05:06:00,
2013-05-29 00:11:00,66.6,64.8,29.48,ENE,76,2.4,3.1,94,0.02,,,0.00,WUHU216HW,2013-05-29 05:11:00,
2013-05-29 00:16:00,66.6,64.8,29.52,SSW,205,1.4,3.1,94,0.02,,,0.00,WUHU216HW,2013-05-29 05:16:00,
2013-05-29 00:21:00,66.7,64.9,29.50,ENE,68,3.1,3.1,94,0.01,,,0.00,WUHU216HW,2013-05-29 05:21:00,
2013-05-29 00:26:00,66.7,64.9,29.52,SSW,207,3.4,4.5,94,0.00,,,0.00,WUHU216HW,2013-05-29 05:26:00,
2013-05-29 00:27:00,66.9,65.1,29.53,SSW,195,2.9,4.5,94,0.00,,,0.00,WUHU216HW,2013-05-29 05:27:00,
2013-05-29 00:32:00,66.9,65.1,29.54,South,173,4.4,5.6,94,0.00,,,0.00,WUHU216HW,2013-05-29 05:32:00,
2013-05-29 00:40:00,67.3,65.2,29.54,WSW,248,3.4,5.6,93,0.00,,,0.00,WUHU216HW,2013-05-29 05:40:00,
2013-05-29 00:47:00,67.4,65.3,29.54,SW,223,1.8,4.0,93,0.00,,,0.00,WUHU216HW,2013-05-29 05:47:00,
2013-05-29 00:55:00,67.2,65.1,29.54,SSW,213,1.4,3.8,93,0.00,,,0.00,WUHU216HW,2013-05-29 05:55:00,
2013-05-29 01:02:00,67.0,64.9,29.55,SW,218,1.0,3.1,93,0.00,,,0.00,WUHU216HW,2013-05-29 06:02:00,
2013-05-29 01:09:00,66.8,64.7,29.55,SSE,158,0.4,1.6,93,0.00,,,0.00,WUHU216HW,2013-05-29 06:09:00,
2013-05-29 01:16:00,66.6,64.5,29.55,South,180,0.9,1.8,93,0.00,,,0.00,WUHU216HW,2013-05-29 06:16:00,
2013-05-29 01:24:00,66.6,64.5,29.54,South,180,1.1,1.1,93,0.00,,,0.00,WUHU216HW,2013-05-29 06:24:00,
2013-05-29 01:31:00,66.6,64.5,29.54,East,90,0.7,2.2,93,0.00,,,0.00,WUHU216HW,2013-05-29 06:31:00,
2013-05-29 01:38:00,66.6,64.5,29.54,South,183,0.6,1.8,93,0.00,,,0.00,WUHU216HW,2013-05-29 06:38:00,
2013-05-29 01:45:00,66.6,64.5,29.55,SSW,207,0.4,1.3,93,0.00,,,0.00,WUHU216HW,2013-05-29 06:45:00,
2013-05-29 01:52:00,66.5,64.4,29.55,South,180,2.2,2.2,93,0.00,,,0.00,WUHU216HW,2013-05-29 06:52:00,
2013-05-29 02:00:00,66.4,64.3,29.54,SSE,158,1.6,2.2,93,0.00,,,0.00,WUHU216HW,2013-05-29 07:00:00,
2013-05-29 02:07:00,66.5,64.1,29.53,SSW,203,0.4,1.6,92,0.00,,,0.00,WUHU216HW,2013-05-29 07:07:00,
2013-05-29 02:14:00,66.4,64.0,29.52,SSE,158,1.1,1.3,92,0.00,,,0.00,WUHU216HW,2013-05-29 07:14:00,
2013-05-29 02:21:00,66.8,64.4,29.53,SSE,155,0.8,1.3,92,0.00,,,0.00,WUHU216HW,2013-05-29 07:21:00,
2013-05-29 02:28:00,66.7,64.0,29.55,NW,315,1.3,1.8,91,0.00,,,0.00,WUHU216HW,2013-05-29 07:28:00,
2013-05-29 02:36:00,67.1,64.4,29.55,SE,135,1.3,2.5,91,0.00,,,0.00,WUHU216HW,2013-05-29 07:36:00,
2013-05-29 02:43:00,67.7,64.1,29.56,SW,225,2.2,2.9,88,0.00,,,0.00,WUHU216HW,2013-05-29 07:43:00,
2013-05-29 02:50:00,68.0,64.0,29.58,SSW,203,6.9,8.5,87,0.00,,,0.00,WUHU216HW,2013-05-29 07:50:00,
2013-05-29 02:57:00,68.3,64.9,29.55,WSW,248,4.5,8.7,89,0.00,,,0.00,WUHU216HW,2013-05-29 07:57:00,
2013-05-29 03:05:00,67.8,65.1,29.57,WSW,248,1.8,5.6,91,0.00,,,0.00,WUHU216HW,2013-05-29 08:05:00,
2013-05-29 03:12:00,67.7,65.0,29.56,SSW,203,5.8,6.9,91,0.01,,,0.01,WUHU216HW,2013-05-29 08:12:00,
2013-05-29 03:19:00,67.7,64.9,29.57,SSE,158,4.0,6.9,91,0.02,,,0.02,WUHU216HW,2013-05-29 08:19:00,
2013-05-29 03:26:00,67.6,64.9,29.58,South,169,1.8,8.1,91,0.04,,,0.04,WUHU216HW,2013-05-29 08:26:00,
2013-05-29 03:38:00,67.4,64.7,29.56,SSE,150,1.6,4.0,91,0.06,,,0.06,WUHU216HW,2013-05-29 08:38:00,
2013-05-29 03:43:00,67.3,64.6,29.53,East,84,1.2,3.4,91,0.07,,,0.07,WUHU216HW,2013-05-29 08:43:00,
2013-05-29 03:48:00,67.2,64.8,29.51,East,90,4.7,4.7,92,0.08,,,0.08,WUHU216HW,2013-05-29 08:48:00,
2013-05-29 03:53:00,66.9,64.5,29.51,ESE,113,0.9,4.7,92,0.08,,,0.08,WUHU216HW,2013-05-29 08:53:00,
2013-05-29 03:58:00,66.7,64.3,29.51,SE,144,0.8,4.7,92,0.08,,,0.08,WUHU216HW,2013-05-29 08:58:00,
2013-05-29 04:03:00,66.4,64.0,29.51,SSW,201,1.3,3.1,92,0.08,,,0.08,WUHU216HW,2013-05-29 09:03:00,
2013-05-29 04:08:00,66.3,63.9,29.52,West,270,0.7,3.1,92,0.07,,,0.08,WUHU216HW,2013-05-29 09:08:00,
2013-05-29 04:13:00,66.2,63.8,29.53,SW,225,2.0,3.6,92,0.07,,,0.08,WUHU216HW,2013-05-29 09:13:00,
2013-05-29 04:18:00,66.2,63.8,29.53,SSE,168,1.4,4.0,92,0.06,,,0.08,WUHU216HW,2013-05-29 09:18:00,
2013-05-29 04:23:00,66.1,63.7,29.54,ESE,113,1.3,4.0,92,0.05,,,0.08,WUHU216HW,2013-05-29 09:23:00,
2013-05-29 04:28:00,65.8,63.4,29.54,ESE,113,1.8,3.8,92,0.04,,,0.08,WUHU216HW,2013-05-29 09:28:00,
2013-05-29 04:33:00,65.7,63.6,29.54,WSW,248,1.6,3.1,93,0.02,,,0.08,WUHU216HW,2013-05-29 09:33:00,
2013-05-29 04:38:00,65.5,63.4,29.55,SW,225,1.8,3.1,93,0.01,,,0.08,WUHU216HW,2013-05-29 09:38:00,
2013-05-29 04:43:00,65.2,63.2,29.55,West,270,1.3,2.5,93,0.00,,,0.08,WUHU216HW,2013-05-29 09:43:00,
2013-05-29 04:48:00,65.2,63.4,29.55,SSW,199,1.6,3.4,94,0.00,,,0.08,WUHU216HW,2013-05-29 09:48:00,
2013-05-29 04:53:00,65.3,63.5,29.57,SSW,211,2.3,3.4,94,0.00,,,0.08,WUHU216HW,2013-05-29 09:53:00,
2013-05-29 04:58:00,65.2,63.4,29.57,South,176,1.5,3.8,94,0.00,,,0.08,WUHU216HW,2013-05-29 09:58:00,
2013-05-29 05:03:00,65.1,63.3,29.57,SSE,164,2.1,3.8,94,0.00,,,0.08,WUHU216HW,2013-05-29 10:03:00,
2013-05-29 05:08:00,65.1,63.3,29.58,SSW,195,1.4,4.9,94,0.00,,,0.08,WUHU216HW,2013-05-29 10:08:00,
2013-05-29 05:13:00,64.9,63.1,29.59,SSW,203,1.8,4.9,94,0.00,,,0.08,WUHU216HW,2013-05-29 10:13:00,
2013-05-29 05:18:00,64.9,63.1,29.59,South,182,1.2,3.4,94,0.00,,,0.08,WUHU216HW,2013-05-29 10:18:00,
2013-05-29 05:23:00,64.8,63.0,29.60,NNW,338,1.1,3.4,94,0.00,,,0.08,WUHU216HW,2013-05-29 10:23:00,
2013-05-29 05:28:00,64.7,62.6,29.59,South,183,2.5,4.0,93,0.00,,,0.08,WUHU216HW,2013-05-29 10:28:00,
2013-05-29 05:33:00,64.6,62.6,29.59,SSE,168,2.1,4.7,93,0.00,,,0.08,WUHU216HW,2013-05-29 10:33:00,
2013-05-29 05:38:00,64.7,62.4,29.58,South,171,3.0,4.7,92,0.00,,,0.08,WUHU216HW,2013-05-29 10:38:00,
2013-05-29 05:43:00,64.6,62.3,29.58,SW,225,3.4,4.7,92,0.00,,,0.08,WUHU216HW,2013-05-29 10:43:00,
2013-05-29 05:48:00,64.7,62.4,29.61,West,264,1.6,4.0,92,0.00,,,0.08,WUHU216HW,2013-05-29 10:48:00,
2013-05-29 05:53:00,64.4,62.1,29.60,ESE,113,1.6,3.4,92,0.00,,,0.08,WUHU216HW,2013-05-29 10:53:00,
2013-05-29 05:58:00,64.3,62.0,29.60,SSW,203,1.8,3.6,92,0.00,,,0.08,WUHU216HW,2013-05-29 10:58:00,
2013-05-29 06:03:00,64.2,61.6,29.61,SSW,195,1.1,3.6,91,0.00,,,0.08,WUHU216HW,2013-05-29 11:03:00,
2013-05-29 06:08:00,64.3,61.7,29.61,South,188,1.5,2.2,91,0.00,,,0.08,WUHU216HW,2013-05-29 11:08:00,
2013-05-29 06:13:00,64.4,61.8,29.60,WSW,248,1.1,2.5,91,0.00,,,0.08,WUHU216HW,2013-05-29 11:13:00,
2013-05-29 06:18:00,64.5,61.9,29.62,South,191,1.0,2.5,91,0.00,,,0.08,WUHU216HW,2013-05-29 11:18:00,
2013-05-29 06:23:00,64.4,61.8,29.62,SSW,203,0.4,1.6,91,0.00,,,0.08,WUHU216HW,2013-05-29 11:23:00,
2013-05-29 06:28:00,65.0,62.4,29.62,ESE,113,0.2,1.1,91,0.00,,,0.08,WUHU216HW,2013-05-29 11:28:00,
2013-05-29 06:33:00,66.4,64.3,29.62,ESE,119,0.3,1.1,93,0.00,,,0.08,WUHU216HW,2013-05-29 11:33:00,
2013-05-29 06:38:00,66.9,64.5,29.62,SW,225,0.4,0.7,92,0.00,,,0.08,WUHU216HW,2013-05-29 11:38:00,
2013-05-29 06:43:00,66.4,63.7,29.62,SSE,158,0.4,0.4,91,0.00,,,0.08,WUHU216HW,2013-05-29 11:43:00,
2013-05-29 06:48:00,67.0,64.0,29.62,SW,223,0.4,1.1,90,0.00,,,0.08,WUHU216HW,2013-05-29 11:48:00,
2013-05-29 06:53:00,68.3,65.8,29.62,ESE,113,0.4,1.1,92,0.00,,,0.08,WUHU216HW,2013-05-29 11:53:00,
2013-05-29 06:58:00,69.4,66.0,29.62,SSE,158,0.9,1.1,89,0.00,,,0.08,WUHU216HW,2013-05-29 11:58:00,
2013-05-29 07:02:00,69.9,65.9,29.62,SSE,168,0.4,1.3,87,0.00,,,0.08,WUHU216HW,2013-05-29 12:02:00,
2013-05-29 07:07:00,70.5,65.2,29.62,SE,143,0.8,1.3,83,0.00,,,0.08,WUHU216HW,2013-05-29 12:07:00,
2013-05-29 07:12:00,70.6,65.6,29.62,WSW,248,0.7,1.1,84,0.00,,,0.08,WUHU216HW,2013-05-29 12:12:00,
2013-05-29 07:17:00,71.1,64.4,29.62,SSW,203,2.5,2.5,79,0.00,,,0.08,WUHU216HW,2013-05-29 12:17:00,
2013-05-29 07:22:00,71.2,65.5,29.62,SE,135,1.1,2.5,82,0.00,,,0.08,WUHU216HW,2013-05-29 12:22:00,
2013-05-29 07:27:00,71.5,64.4,29.62,South,169,1.6,2.7,78,0.00,,,0.08,WUHU216HW,2013-05-29 12:27:00,
2013-05-29 07:32:00,71.2,64.5,29.61,ESE,113,1.8,2.7,79,0.00,,,0.08,WUHU216HW,2013-05-29 12:32:00,
2013-05-29 07:37:00,71.5,64.7,29.61,SSW,203,1.3,2.5,79,0.00,,,0.08,WUHU216HW,2013-05-29 12:37:00,
2013-05-29 07:42:00,72.2,65.1,29.62,SW,225,1.8,2.5,78,0.00,,,0.08,WUHU216HW,2013-05-29 12:42:00,
2013-05-29 07:47:00,72.2,65.5,29.61,ENE,68,2.0,3.4,79,0.00,,,0.08,WUHU216HW,2013-05-29 12:47:00,
2013-05-29 07:52:00,71.8,64.4,29.62,South,180,2.0,3.8,77,0.00,,,0.08,WUHU216HW,2013-05-29 12:52:00,
2013-05-29 07:57:00,71.2,63.7,29.62,SW,225,2.7,3.8,77,0.00,,,0.08,WUHU216HW,2013-05-29 12:57:00,
2013-05-29 08:02:00,71.0,63.9,29.61,SSW,203,2.0,3.4,78,0.00,,,0.08,WUHU216HW,2013-05-29 13:02:00,
2013-05-29 08:07:00,70.5,64.2,29.61,SE,145,1.0,3.4,80,0.00,,,0.08,WUHU216HW,2013-05-29 13:07:00,
2013-05-29 08:12:00,70.7,64.3,29.62,SE,135,1.8,2.2,80,0.00,,,0.08,WUHU216HW,2013-05-29 13:12:00,
2013-05-29 08:17:00,70.2,63.8,29.62,SE,135,2.2,2.2,80,0.00,,,0.08,WUHU216HW,2013-05-29 13:17:00,
2013-05-29 08:22:00,69.8,63.8,29.62,ESE,122,1.0,2.5,81,0.00,,,0.08,WUHU216HW,2013-05-29 13:22:00,
2013-05-29 08:27:00,69.8,63.5,29.62,ESE,113,1.8,3.1,80,0.00,,,0.08,WUHU216HW,2013-05-29 13:27:00,
2013-05-29 08:32:00,70.2,63.8,29.62,South,180,4.5,4.5,80,0.00,,,0.08,WUHU216HW,2013-05-29 13:32:00,
2013-05-29 08:37:00,71.4,64.0,29.62,SE,142,2.2,4.5,77,0.00,,,0.08,WUHU216HW,2013-05-29 13:37:00,
2013-05-29 08:42:00,72.2,64.4,29.61,South,179,3.1,4.0,76,0.00,,,0.08,WUHU216HW,2013-05-29 13:42:00,
2013-05-29 08:47:00,72.5,64.6,29.61,East,90,2.5,4.0,76,0.00,,,0.08,WUHU216HW,2013-05-29 13:47:00,
2013-05-29 08:52:00,72.4,64.6,29.61,SSE,158,1.3,4.3,76,0.00,,,0.08,WUHU216HW,2013-05-29 13:52:00,
2013-05-29 08:57:00,73.4,65.2,29.61,SE,135,3.1,4.3,75,0.00,,,0.08,WUHU216HW,2013-05-29 13:57:00,
2013-05-29 09:02:00,73.6,64.6,29.61,SSW,203,3.4,4.0,73,0.00,,,0.08,WUHU216HW,2013-05-29 14:02:00,
2013-05-29 09:07:00,73.8,64.8,29.61,WSW,248,2.9,4.5,73,0.00,,,0.08,WUHU216HW,2013-05-29 14:07:00,
2013-05-29 09:12:00,73.9,64.6,29.61,ESE,113,3.1,4.5,72,0.00,,,0.08,WUHU216HW,2013-05-29 14:12:00,
2013-05-29 09:17:00,74.1,65.1,29.61,SE,127,2.8,4.0,73,0.00,,,0.08,WUHU216HW,2013-05-29 14:17:00,
2013-05-29 09:22:00,73.8,64.4,29.61,ESE,113,3.8,4.7,72,0.00,,,0.08,WUHU216HW,2013-05-29 14:22:00,
2013-05-29 09:27:00,73.5,64.9,29.60,East,90,3.6,4.7,74,0.00,,,0.08,WUHU216HW,2013-05-29 14:27:00,
2013-05-29 09:32:00,73.7,65.5,29.60,NNE,23,1.6,4.0,75,0.00,,,0.08,WUHU216HW,2013-05-29 14:32:00,
2013-05-29 09:37:00,73.8,64.9,29.60,SE,135,4.5,4.5,73,0.00,,,0.08,WUHU216HW,2013-05-29 14:37:00,
2013-05-29 09:42:00,74.0,65.4,29.60,SSW,203,3.6,4.5,74,0.00,,,0.08,WUHU216HW,2013-05-29 14:42:00,
2013-05-29 09:47:00,74.2,65.6,29.60,SSW,199,3.3,4.9,74,0.00,,,0.08,WUHU216HW,2013-05-29 14:47:00,
2013-05-29 09:52:00,73.9,65.3,29.60,South,176,2.2,6.7,74,0.00,,,0.08,WUHU216HW,2013-05-29 14:52:00,
2013-05-29 09:57:00,74.3,65.3,29.60,East,88,3.2,6.7,73,0.00,,,0.08,WUHU216HW,2013-05-29 14:57:00,
2013-05-29 10:02:00,74.5,65.5,29.60,SSE,158,2.5,5.4,73,0.00,,,0.08,WUHU216HW,2013-05-29 15:02:00,
2013-05-29 10:07:00,74.6,65.6,29.60,ESE,104,3.5,5.6,73,0.00,,,0.08,WUHU216HW,2013-05-29 15:07:00,
2013-05-29 10:12:00,74.8,65.4,29.60,SE,133,3.7,5.6,72,0.00,,,0.08,WUHU216HW,2013-05-29 15:12:00,
2013-05-29 10:17:00,74.7,65.7,29.60,SSE,158,2.9,4.7,73,0.00,,,0.08,WUHU216HW,2013-05-29 15:17:00,
2013-05-29 10:22:00,74.5,65.5,29.60,SSE,157,2.8,4.9,73,0.00,,,0.08,WUHU216HW,2013-05-29 15:22:00,
2013-05-29 10:27:00,74.9,65.9,29.60,ESE,113,3.1,4.9,73,0.00,,,0.08,WUHU216HW,2013-05-29 15:27:00,
2013-05-29 10:32:00,75.6,66.1,29.60,ESE,121,3.2,4.3,72,0.00,,,0.08,WUHU216HW,2013-05-29 15:32:00,
2013-05-29 10:37:00,75.2,65.8,29.60,WSW,248,2.5,4.9,72,0.00,,,0.08,WUHU216HW,2013-05-29 15:37:00,
2013-05-29 10:42:00,75.9,66.8,29.60,South,180,2.9,4.9,73,0.00,,,0.08,WUHU216HW,2013-05-29 15:42:00,
2013-05-29 10:47:00,76.5,66.7,29.60,East,90,7.8,7.8,71,0.00,,,0.08,WUHU216HW,2013-05-29 15:47:00,
2013-05-29 10:52:00,76.2,66.3,29.60,SSE,154,3.3,7.8,71,0.00,,,0.08,WUHU216HW,2013-05-29 15:52:00,
2013-05-29 10:57:00,76.0,66.5,29.59,SE,135,2.7,7.8,72,0.00,,,0.08,WUHU216HW,2013-05-29 15:57:00,
2013-05-29 11:02:00,76.2,66.8,29.59,South,180,4.3,5.4,72,0.00,,,0.08,WUHU216HW,2013-05-29 16:02:00,
2013-05-29 11:07:00,75.9,66.4,29.59,South,170,4.0,5.8,72,0.00,,,0.08,WUHU216HW,2013-05-29 16:07:00,
2013-05-29 11:12:00,75.8,66.0,29.59,East,90,3.8,5.8,71,0.00,,,0.08,WUHU216HW,2013-05-29 16:12:00,
2013-05-29 11:17:00,76.5,67.0,29.59,WSW,248,3.4,4.5,72,0.00,,,0.08,WUHU216HW,2013-05-29 16:17:00,
2013-05-29 11:22:00,77.0,67.1,29.59,ESE,113,4.5,4.5,71,0.00,,,0.08,WUHU216HW,2013-05-29 16:22:00,
2013-05-29 11:27:00,76.6,66.8,29.58,South,185,3.8,5.8,71,0.00,,,0.08,WUHU216HW,2013-05-29 16:27:00,
2013-05-29 11:32:00,76.9,66.6,29.59,ESE,113,4.3,5.8,70,0.00,,,0.08,WUHU216HW,2013-05-29 16:32:00,
2013-05-29 11:37:00,77.1,67.2,29.59,SSE,168,1.4,4.7,71,0.00,,,0.08,WUHU216HW,2013-05-29 16:37:00,
2013-05-29 11:42:00,77.3,67.4,29.59,South,176,2.9,5.1,71,0.00,,,0.08,WUHU216HW,2013-05-29 16:42:00,
2013-05-29 11:47:00,77.4,67.1,29.59,WSW,258,3.8,5.4,70,0.00,,,0.08,WUHU216HW,2013-05-29 16:47:00,
2013-05-29 11:52:00,77.6,67.7,29.59,SSW,203,3.1,5.4,71,0.00,,,0.08,WUHU216HW,2013-05-29 16:52:00,
2013-05-29 11:57:00,77.4,67.5,29.59,SSE,152,3.0,5.8,71,0.00,,,0.08,WUHU216HW,2013-05-29 16:57:00,
2013-05-29 12:02:00,77.0,67.1,29.59,South,183,2.9,5.8,71,0.00,,,0.08,WUHU216HW,2013-05-29 17:02:00,
2013-05-29 12:07:00,77.6,67.7,29.59,East,94,3.8,5.1,71,0.00,,,0.08,WUHU216HW,2013-05-29 17:07:00,
2013-05-29 12:12:00,78.2,67.9,29.59,SE,134,2.1,4.7,70,0.00,,,0.08,WUHU216HW,2013-05-29 17:12:00,
2013-05-29 12:17:00,78.5,68.6,29.59,SW,225,2.2,4.7,71,0.00,,,0.08,WUHU216HW,2013-05-29 17:17:00,
2013-05-29 12:22:00,78.5,68.1,29.59,SE,136,4.2,5.8,70,0.00,,,0.08,WUHU216HW,2013-05-29 17:22:00,
2013-05-29 12:27:00,79.3,69.3,29.59,South,179,3.0,5.8,71,0.00,,,0.08,WUHU216HW,2013-05-29 17:27:00,
2013-05-29 12:32:00,79.6,69.2,29.59,South,172,3.3,6.3,70,0.00,,,0.08,WUHU216HW,2013-05-29 17:32:00,
2013-05-29 12:37:00,79.3,69.0,29.59,SSW,209,2.6,6.3,70,0.00,,,0.08,WUHU216HW,2013-05-29 17:37:00,
2013-05-29 12:42:00,79.2,68.9,29.59,South,170,2.1,5.4,70,0.00,,,0.08,WUHU216HW,2013-05-29 17:42:00,
2013-05-29 12:47:00,79.0,68.7,29.58,SE,135,3.6,4.5,70,0.00,,,0.08,WUHU216HW,2013-05-29 17:47:00,
2013-05-29 12:52:00,79.7,69.3,29.59,SE,125,4.2,7.6,70,0.00,,,0.08,WUHU216HW,2013-05-29 17:52:00,
2013-05-29 12:57:00,80.1,68.9,29.58,WSW,248,4.3,7.6,68,0.00,,,0.08,WUHU216HW,2013-05-29 17:57:00,
2013-05-29 13:02:00,80.1,69.3,29.58,SSW,201,3.0,5.8,69,0.00,,,0.08,WUHU216HW,2013-05-29 18:02:00,
2013-05-29 13:07:00,80.8,69.1,29.58,South,180,5.1,5.4,67,0.00,,,0.08,WUHU216HW,2013-05-29 18:07:00,
2013-05-29 13:12:00,81.0,70.1,29.58,South,173,3.9,6.0,69,0.00,,,0.08,WUHU216HW,2013-05-29 18:12:00,
2013-05-29 13:17:00,81.0,70.1,29.58,SE,135,3.8,6.7,69,0.00,,,0.08,WUHU216HW,2013-05-29 18:17:00,
2013-05-29 13:22:00,81.3,70.0,29.58,SW,222,3.4,6.7,68,0.00,,,0.08,WUHU216HW,2013-05-29 18:22:00,
2013-05-29 13:27:00,81.9,70.2,29.58,SSE,158,3.8,4.9,67,0.00,,,0.08,WUHU216HW,2013-05-29 18:27:00,
2013-05-29 13:32:00,82.2,70.5,29.58,East,90,3.8,5.1,67,0.00,,,0.08,WUHU216HW,2013-05-29 18:32:00,
2013-05-29 13:37:00,81.3,70.0,29.57,SSE,165,2.4,5.1,68,0.00,,,0.08,WUHU216HW,2013-05-29 18:37:00,
2013-05-29 13:42:00,81.7,70.0,29.57,SSW,196,2.4,5.1,67,0.00,,,0.08,WUHU216HW,2013-05-29 18:42:00,
2013-05-29 13:47:00,82.4,69.8,29.57,SE,135,4.9,4.9,65,0.00,,,0.08,WUHU216HW,2013-05-29 18:47:00,
2013-05-29 13:52:00,82.4,69.3,29.57,ESE,113,3.4,5.4,64,0.00,,,0.08,WUHU216HW,2013-05-29 18:52:00,
2013-05-29 13:57:00,82.9,69.7,29.57,South,180,5.1,6.0,64,0.00,,,0.08,WUHU216HW,2013-05-29 18:57:00,
2013-05-29 14:02:00,83.2,70.0,29.57,SSW,203,3.4,6.0,64,0.00,,,0.08,WUHU216HW,2013-05-29 19:02:00,
2013-05-29 14:07:00,83.6,70.4,29.57,South,170,3.5,6.0,64,0.00,,,0.08,WUHU216HW,2013-05-29 19:07:00,
2013-05-29 14:12:00,83.6,70.4,29.56,SE,130,4.0,6.7,64,0.00,,,0.08,WUHU216HW,2013-05-29 19:12:00,
2013-05-29 14:17:00,83.6,70.5,29.56,SW,225,4.0,6.7,64,0.00,,,0.08,WUHU216HW,2013-05-29 19:17:00,
2013-05-29 14:22:00,83.6,70.0,29.56,SE,135,6.7,6.7,63,0.00,,,0.08,WUHU216HW,2013-05-29 19:22:00,
2013-05-29 14:27:00,84.0,70.8,29.55,SSE,163,2.6,6.7,64,0.00,,,0.08,WUHU216HW,2013-05-29 19:27:00,
2013-05-29 14:32:00,84.0,70.3,29.55,South,184,4.3,7.6,63,0.00,,,0.08,WUHU216HW,2013-05-29 19:32:00,
2013-05-29 14:37:00,84.6,70.5,29.55,South,169,3.0,7.6,62,0.00,,,0.08,WUHU216HW,2013-05-29 19:37:00,
2013-05-29 14:42:00,83.7,69.2,29.55,SSW,203,5.1,6.9,61,0.00,,,0.08,WUHU216HW,2013-05-29 19:42:00,
2013-05-29 14:47:00,83.8,70.1,29.55,SSE,166,3.4,6.9,63,0.00,,,0.08,WUHU216HW,2013-05-29 19:47:00,
2013-05-29 14:52:00,84.3,69.2,29.55,SE,135,6.7,7.2,60,0.00,,,0.08,WUHU216HW,2013-05-29 19:52:00,
2013-05-29 14:57:00,83.4,69.8,29.55,SSE,159,4.1,7.4,63,0.00,,,0.08,WUHU216HW,2013-05-29 19:57:00,
2013-05-29 15:02:00,83.4,70.3,29.54,SSW,194,2.7,7.4,64,0.00,,,0.08,WUHU216HW,2013-05-29 20:02:00,
2013-05-29 15:07:00,84.1,70.0,29.55,South,172,4.2,6.9,62,0.00,,,0.08,WUHU216HW,2013-05-29 20:07:00,
2013-05-29 15:12:00,85.0,71.3,29.54,SSE,158,5.4,5.6,63,0.00,,,0.08,WUHU216HW,2013-05-29 20:12:00,
2013-05-29 15:17:00,84.8,70.2,29.54,South,189,4.6,7.6,61,0.00,,,0.08,WUHU216HW,2013-05-29 20:17:00,
2013-05-29 15:22:00,85.1,70.4,29.54,SSE,160,4.1,7.6,61,0.00,,,0.08,WUHU216HW,2013-05-29 20:22:00,
2013-05-29 15:27:00,85.6,69.4,29.54,NE,45,5.4,6.3,58,0.00,,,0.08,WUHU216HW,2013-05-29 20:27:00,
2013-05-29 15:32:00,85.2,69.5,29.54,SSE,151,4.2,6.0,59,0.00,,,0.08,WUHU216HW,2013-05-29 20:32:00,
2013-05-29 15:37:00,84.4,69.8,29.53,SSE,162,3.8,6.0,61,0.00,,,0.08,WUHU216HW,2013-05-29 20:37:00,
2013-05-29 15:42:00,84.8,69.2,29.53,East,90,5.8,6.0,59,0.00,,,0.08,WUHU216HW,2013-05-29 20:42:00,
2013-05-29 15:47:00,85.3,70.1,29.53,SSE,159,3.3,5.8,60,0.00,,,0.08,WUHU216HW,2013-05-29 20:47:00,
2013-05-29 15:52:00,85.4,69.8,29.52,South,172,4.1,6.5,59,0.00,,,0.08,WUHU216HW,2013-05-29 20:52:00,
2013-05-29 15:57:00,85.4,69.7,29.52,South,177,5.0,7.2,59,0.00,,,0.08,WUHU216HW,2013-05-29 20:57:00,
2013-05-29 16:02:00,85.4,69.8,29.51,WSW,238,4.0,7.2,59,0.00,,,0.08,WUHU216HW,2013-05-29 21:02:00,
2013-05-29 16:07:00,85.5,69.3,29.51,SSW,211,3.2,5.8,58,0.00,,,0.08,WUHU216HW,2013-05-29 21:07:00,
2013-05-29 16:12:00,85.5,69.9,29.51,SE,131,3.1,6.3,59,0.00,,,0.08,WUHU216HW,2013-05-29 21:12:00,
2013-05-29 16:17:00,85.4,69.2,29.50,South,173,3.9,6.3,58,0.00,,,0.08,WUHU216HW,2013-05-29 21:17:00,
2013-05-29 16:22:00,85.4,69.3,29.50,ENE,59,5.7,7.4,58,0.00,,,0.08,WUHU216HW,2013-05-29 21:22:00,
2013-05-29 16:27:00,86.2,70.0,29.50,NE,45,3.4,7.4,58,0.00,,,0.08,WUHU216HW,2013-05-29 21:27:00,
2013-05-29 16:32:00,86.4,69.7,29.50,ESE,113,5.6,6.9,57,0.00,,,0.08,WUHU216HW,2013-05-29 21:32:00,
2013-05-29 16:37:00,85.4,69.2,29.50,SSE,149,4.0,6.9,58,0.00,,,0.08,WUHU216HW,2013-05-29 21:37:00,
2013-05-29 16:42:00,85.9,70.2,29.51,SSE,168,3.0,5.8,59,0.00,,,0.08,WUHU216HW,2013-05-29 21:42:00,
2013-05-29 16:47:00,86.4,69.7,29.51,South,176,3.9,6.0,57,0.00,,,0.08,WUHU216HW,2013-05-29 21:47:00,
2013-05-29 16:52:00,86.0,69.3,29.51,SSW,200,4.6,6.3,57,0.00,,,0.08,WUHU216HW,2013-05-29 21:52:00,
2013-05-29 16:57:00,86.0,68.8,29.51,SSW,206,3.7,7.2,56,0.00,,,0.08,WUHU216HW,2013-05-29 21:57:00,
2013-05-29 17:02:00,85.5,68.8,29.52,South,172,4.6,7.2,57,0.00,,,0.08,WUHU216HW,2013-05-29 22:02:00,
2013-05-29 17:07:00,85.9,69.7,29.52,SE,141,3.7,7.2,58,0.00,,,0.08,WUHU216HW,2013-05-29 22:07:00,
2013-05-29 17:12:00,85.8,68.6,29.52,ESE,113,6.5,6.9,56,0.00,,,0.08,WUHU216HW,2013-05-29 22:12:00,
2013-05-29 17:17:00,84.7,68.1,29.52,SSW,200,3.6,7.2,57,0.00,,,0.08,WUHU216HW,2013-05-29 22:17:00,
2013-05-29 17:22:00,84.5,67.9,29.52,South,176,3.1,7.2,57,0.00,,,0.08,WUHU216HW,2013-05-29 22:22:00,
2013-05-29 17:27:00,84.6,67.9,29.52,ESE,116,3.2,6.3,57,0.00,,,0.08,WUHU216HW,2013-05-29 22:27:00,
2013-05-29 17:32:00,84.0,66.9,29.53,ESE,113,4.0,7.2,56,0.00,,,0.08,WUHU216HW,2013-05-29 22:32:00,
2013-05-29 17:37:00,83.6,67.0,29.52,SE,146,2.3,7.2,57,0.00,,,0.08,WUHU216HW,2013-05-29 22:37:00,
2013-05-29 17:42:00,83.5,66.4,29.52,ENE,68,4.7,6.9,56,0.00,,,0.08,WUHU216HW,2013-05-29 22:42:00,
2013-05-29 17:47:00,83.0,67.0,29.52,SE,136,3.9,5.4,58,0.00,,,0.08,WUHU216HW,2013-05-29 22:47:00,
2013-05-29 17:52:00,82.7,67.2,29.51,SSE,151,5.0,6.5,59,0.00,,,0.08,WUHU216HW,2013-05-29 22:52:00,
2013-05-29 17:57:00,82.3,67.3,29.51,South,181,2.8,6.5,60,0.00,,,0.08,WUHU216HW,2013-05-29 22:57:00,
2013-05-29 18:02:00,82.3,67.8,29.50,SSE,158,3.6,5.8,61,0.00,,,0.08,WUHU216HW,2013-05-29 23:02:00,
2013-05-29 18:07:00,82.0,67.5,29.50,SSW,212,3.0,4.7,61,0.00,,,0.08,WUHU216HW,2013-05-29 23:07:00,
2013-05-29 18:12:00,81.9,67.4,29.50,SSE,161,3.1,4.7,61,0.00,,,0.08,WUHU216HW,2013-05-29 23:12:00,
2013-05-29 18:17:00,81.7,67.8,29.49,SSW,203,1.8,5.4,62,0.00,,,0.08,WUHU216HW,2013-05-29 23:17:00,
2013-05-29 18:22:00,81.7,67.7,29.49,SE,129,3.0,5.4,62,0.00,,,0.08,WUHU216HW,2013-05-29 23:22:00,
2013-05-29 18:27:00,81.8,67.8,29.49,ESE,120,2.4,4.9,62,0.00,,,0.08,WUHU216HW,2013-05-29 23:27:00,
2013-05-29 18:32:00,81.9,68.3,29.49,SE,143,3.0,4.7,63,0.00,,,0.08,WUHU216HW,2013-05-29 23:32:00,
2013-05-29 18:37:00,81.7,67.8,29.49,South,171,3.3,5.1,62,0.00,,,0.08,WUHU216HW,2013-05-29 23:37:00,
2013-05-29 18:42:00,81.8,67.8,29.49,South,173,2.3,5.1,62,0.00,,,0.08,WUHU216HW,2013-05-29 23:42:00,
2013-05-29 18:47:00,81.9,68.4,29.50,North,0,1.6,4.7,63,0.00,,,0.08,WUHU216HW,2013-05-29 23:47:00,
2013-05-29 18:52:00,81.8,68.2,29.50,SW,225,2.2,3.4,63,0.00,,,0.08,WUHU216HW,2013-05-29 23:52:00,
2013-05-29 18:57:00,81.8,68.8,29.50,SSE,157,2.2,4.0,64,0.00,,,0.08,WUHU216HW,2013-05-29 23:57:00,
2013-05-29 19:02:00,81.7,68.6,29.50,SW,225,1.8,4.0,64,0.00,,,0.08,WUHU216HW,2013-05-30 00:02:00,
2013-05-29 19:07:00,81.6,69.0,29.50,West,270,2.9,2.9,65,0.00,,,0.08,WUHU216HW,2013-05-30 00:07:00,
2013-05-29 19:12:00,81.6,69.4,29.50,SE,138,2.4,3.4,66,0.00,,,0.08,WUHU216HW,2013-05-30 00:12:00,
2013-05-29 19:17:00,81.4,69.3,29.50,SSE,158,2.9,3.8,66,0.00,,,0.08,WUHU216HW,2013-05-30 00:17:00,
2013-05-29 19:22:00,81.3,69.2,29.49,ESE,113,1.8,3.8,66,0.00,,,0.08,WUHU216HW,2013-05-30 00:22:00,
2013-05-29 19:27:00,81.2,68.6,29.49,ESE,116,2.1,3.8,65,0.00,,,0.08,WUHU216HW,2013-05-30 00:27:00,
2013-05-29 19:32:00,81.1,68.5,29.49,SE,132,2.2,3.8,65,0.00,,,0.08,WUHU216HW,2013-05-30 00:32:00,
2013-05-29 19:37:00,81.0,68.9,29.49,SE,135,1.8,2.7,66,0.00,,,0.08,WUHU216HW,2013-05-30 00:37:00,
2013-05-29 19:42:00,80.9,69.2,29.49,SE,127,1.4,2.2,67,0.00,,,0.08,WUHU216HW,2013-05-30 00:42:00,
2013-05-29 19:47:00,80.8,69.5,29.49,SE,140,1.0,2.5,68,0.00,,,0.08,WUHU216HW,2013-05-30 00:47:00,
2013-05-29 19:52:00,80.7,69.4,29.49,ESE,113,1.1,2.5,68,0.00,,,0.08,WUHU216HW,2013-05-30 00:52:00,
2013-05-29 19:57:00,80.5,69.6,29.49,ESE,110,1.8,2.9,69,0.00,,,0.08,WUHU216HW,2013-05-30 00:57:00,
2013-05-29 20:02:00,80.3,69.5,29.49,SE,145,2.5,3.4,69,0.00,,,0.08,WUHU216HW,2013-05-30 01:02:00,
2013-05-29 20:07:00,80.2,69.4,29.49,East,90,1.6,4.0,69,0.00,,,0.08,WUHU216HW,2013-05-30 01:07:00,
2013-05-29 20:12:00,80.1,69.3,29.48,SSE,157,1.5,4.0,69,0.00,,,0.08,WUHU216HW,2013-05-30 01:12:00,
2013-05-29 20:17:00,80.0,69.2,29.49,SSE,158,1.3,2.7,69,0.00,,,0.08,WUHU216HW,2013-05-30 01:17:00,
2013-05-29 20:22:00,80.0,69.6,29.49,ESE,102,0.6,2.2,70,0.00,,,0.08,WUHU216HW,2013-05-30 01:22:00,
2013-05-29 20:27:00,79.7,69.4,29.49,SE,145,1.3,2.5,70,0.00,,,0.08,WUHU216HW,2013-05-30 01:27:00,
2013-05-29 20:32:00,79.6,69.3,29.50,SE,130,1.3,2.5,70,0.00,,,0.08,WUHU216HW,2013-05-30 01:32:00,
2013-05-29 20:37:00,79.5,69.6,29.50,ESE,109,1.0,2.5,71,0.00,,,0.08,WUHU216HW,2013-05-30 01:37:00,
2013-05-29 20:42:00,79.5,69.6,29.50,South,186,0.7,2.5,71,0.00,,,0.08,WUHU216HW,2013-05-30 01:42:00,
2013-05-29 20:47:00,79.0,69.1,29.51,ENE,60,0.9,1.8,71,0.00,,,0.08,WUHU216HW,2013-05-30 01:47:00,
2013-05-29 20:52:00,78.9,69.4,29.51,SE,137,0.8,2.2,72,0.00,,,0.08,WUHU216HW,2013-05-30 01:52:00,
2013-05-29 20:57:00,78.9,69.4,29.51,SSE,162,0.4,2.2,72,0.00,,,0.08,WUHU216HW,2013-05-30 01:57:00,
2013-05-29 21:02:00,78.4,68.9,29.52,East,90,0.0,0.7,72,0.00,,,0.08,WUHU216HW,2013-05-30 02:02:00,
2013-05-29 21:07:00,78.2,69.5,29.51,SE,140,0.6,1.1,74,0.00,,,0.08,WUHU216HW,2013-05-30 02:07:00,
2013-05-29 21:12:00,78.1,69.4,29.52,ESE,113,0.9,1.1,74,0.00,,,0.08,WUHU216HW,2013-05-30 02:12:00,
2013-05-29 21:17:00,78.2,69.8,29.52,SE,144,0.9,1.3,75,0.00,,,0.08,WUHU216HW,2013-05-30 02:17:00,
2013-05-29 21:22:00,78.1,69.7,29.52,SE,141,1.0,1.8,75,0.00,,,0.08,WUHU216HW,2013-05-30 02:22:00,
2013-05-29 21:30:00,78.2,69.9,29.53,SSW,203,0.9,0.9,75,0.00,,,0.08,WUHU216HW,2013-05-30 02:30:00,
2013-05-29 21:31:00,78.2,69.8,29.53,South,180,1.1,2.2,75,0.00,,,0.08,WUHU216HW,2013-05-30 02:31:00,
2013-05-29 21:36:00,78.2,69.9,29.53,SSW,203,0.9,0.9,75,0.00,,,0.08,WUHU216HW,2013-05-30 02:36:00,
2013-05-29 22:00:00,78.3,70.3,29.53,SSE,158,2.0,2.0,76,0.00,,,0.08,WUHU216HW,2013-05-30 03:00:00,
2013-05-29 22:05:00,78.4,70.4,29.53,SE,135,1.8,2.5,76,0.00,,,0.08,WUHU216HW,2013-05-30 03:05:00,
2013-05-29 22:10:00,78.7,70.7,29.54,SSE,158,2.2,2.5,76,0.00,,,0.08,WUHU216HW,2013-05-30 03:10:00,
2013-05-29 22:15:00,79.0,71.0,29.54,SSW,203,3.4,3.4,76,0.00,,,0.08,WUHU216HW,2013-05-30 03:15:00,
2013-05-29 22:20:00,79.1,70.7,29.54,SE,125,0.8,3.4,75,0.00,,,0.08,WUHU216HW,2013-05-30 03:20:00,
2013-05-29 22:25:00,79.1,71.1,29.54,SSW,203,2.2,3.4,76,0.00,,,0.08,WUHU216HW,2013-05-30 03:25:00,
2013-05-29 22:30:00,79.4,71.4,29.55,ESE,113,1.9,3.4,76,0.00,,,0.08,WUHU216HW,2013-05-30 03:30:00,
2013-05-29 22:35:00,79.5,71.1,29.55,SSW,200,2.4,4.0,75,0.00,,,0.08,WUHU216HW,2013-05-30 03:35:00,
2013-05-29 22:40:00,79.6,71.2,29.55,South,180,3.4,4.0,75,0.00,,,0.08,WUHU216HW,2013-05-30 03:40:00,
2013-05-29 22:45:00,79.6,71.6,29.55,South,176,1.7,3.4,76,0.00,,,0.08,WUHU216HW,2013-05-30 03:45:00,
2013-05-29 22:50:00,79.7,71.3,29.55,ESE,121,1.8,3.4,75,0.00,,,0.08,WUHU216HW,2013-05-30 03:50:00,
2013-05-29 22:55:00,79.6,71.2,29.55,NW,315,2.0,3.1,75,0.00,,,0.08,WUHU216HW,2013-05-30 03:55:00,
2013-05-29 23:00:00,79.6,71.2,29.55,SSW,203,3.4,3.4,75,0.00,,,0.08,WUHU216HW,2013-05-30 04:00:00,
2013-05-29 23:01:00,79.6,71.2,29.55,South,188,2.5,3.4,75,0.00,,,0.08,WUHU216HW,2013-05-30 04:01:00,
2013-05-29 23:06:00,79.7,71.3,29.55,SSE,158,1.8,3.4,75,0.00,,,0.08,WUHU216HW,2013-05-30 04:06:00,
2013-05-29 23:11:00,79.6,71.2,29.56,South,184,2.1,3.4,75,0.00,,,0.08,WUHU216HW,2013-05-30 04:11:00,
2013-05-29 23:16:00,79.4,71.0,29.56,South,175,2.7,3.6,75,0.00,,,0.08,WUHU216HW,2013-05-30 04:16:00,
2013-05-29 23:21:00,79.5,71.1,29.56,South,176,2.4,3.6,75,0.00,,,0.08,WUHU216HW,2013-05-30 04:21:00,
2013-05-29 23:26:00,79.4,71.4,29.56,SSW,193,1.4,3.8,76,0.00,,,0.08,WUHU216HW,2013-05-30 04:26:00,
2013-05-29 23:31:00,79.3,71.3,29.56,WSW,248,2.5,3.8,76,0.00,,,0.08,WUHU216HW,2013-05-30 04:31:00,
2013-05-29 23:36:00,78.9,70.9,29.57,SE,136,0.6,3.4,76,0.00,,,0.08,WUHU216HW,2013-05-30 04:36:00,
2013-05-29 23:41:00,78.8,71.1,29.56,SSW,203,1.8,3.4,77,0.00,,,0.08,WUHU216HW,2013-05-30 04:41:00,
2013-05-29 23:46:00,78.7,70.7,29.56,South,176,0.8,3.1,76,0.00,,,0.08,WUHU216HW,2013-05-30 04:46:00,
2013-05-29 23:51:00,78.6,70.9,29.56,South,180,2.9,2.9,77,0.00,,,0.08,WUHU216HW,2013-05-30 04:51:00,
2013-05-29 23:56:00,78.4,70.8,29.56,SSE,158,0.9,2.9,77,0.00,,,0.08,WUHU216HW,2013-05-30 04:56:00,